Terminal Aerodrome Forecast
Issued by NWS

Home | Current Version | Previous Version | Text Only | Print | Product List | Glossary On
Versions: 1 2 3 4 5 6 7 8 9 10 11 12 13 14 15 16 17 18
000
FTAK31 PAJN 290500
TAFAPG
TAF
PAPG 290524Z 2906/3006 00000KT P6SM -RA SCT015 OVC050
     FM291100 13008KT 6SM -RA BR BKN025 OVC030
     FM291800 06005KT 6SM -RA BR SCT015 BKN025 OVC035
     FM292100 06005KT 6SM -RA BR SCT015 SCT025 OVC035
     FM300100 VRB05KT P6SM -SHRA BKN025 OVC035
      AMD LTD TO CLD VIS AND WIND 2906/2915=

USA.gov is the U.S. government's official web portal to all federal, state and local government web resources and services.